CSY4 weather

Public forecast

Using degrees Celsius for public forecast. Weather courtesy of forecast.io.

Closest aviation weather report (METAR) to St-Donat Airport

Closest report is Montreal International (Mirabel) Airport, 38.1 nm (70.5 km) S. Retrieved 2020/08/15 20:00 UTC (49 minutes ago):

CYMX 152000Z 11007KT 060V130 35SM FEW045 27/17 A3004 RMK CU1 SLP175 DENSITY ALT 1700FT

Closest aviation forecast (TAF) to St-Donat Airport

Closest forecast is Montreal International (Mirabel) Airport, 38.1 nm (70.5 km) S. Retrieved 2020/08/15 18:45 UTC (2 hours ago):

TAF CYMX 151742Z 1518/1618 05008KT P6SM FEW040 FM160300 04005KT P6SM SCT070 TEMPO 1603/1607 BKN070 FM161600 15006KT P6SM SCT050 TEMPO 1616/1618 P6SM -SHRA BKN050 RMK NXT FCST BY 160000Z